Time;durP1;ratioP1;P1;durP2;ratioP2;P2;SDS_P1;SDS_P2;PMS_P1;PMS_P2;Temp;Humidity;BMP_temperature;BMP_pressure;BME280_temperature;BME280_humidity;BME280_pressure;Samples;Min_cycle;Max_cycle;Signal;HPM_P1;HPM_P2
2022/08/17 00:01:25;;;;;;;;;;;;;;;;;;5140635;27;19915;-88
2022/08/17 00:03:56;;;;;;;;;;;;;;;;;;5157674;27;19915;-88
2022/08/17 00:06:23;;;;;;;;;;;;;;;;;;5158760;27;19915;-88
2022/08/17 00:08:59;;;;;;;;;;;;;;;;;;5158356;27;19963;-88
2022/08/17 00:11:37;;;;;;;;;;;;;;;;;;5157817;27;19915;-89
2022/08/17 00:14:04;;;;;;;;;;;;;;;;;;5140152;27;19923;-86
2022/08/17 00:16:33;;;;;;;;;;;;;;;;;;5166442;27;19910;-89
2022/08/17 00:18:59;;;;;;;;;;;;;;;;;;5158108;27;19938;-87
2022/08/17 00:21:24;;;;;;;;;;;;;;;;;;5157336;27;20324;-89
2022/08/17 00:23:50;;;;;;;;;;;;;;;;;;5157583;27;19951;-88
2022/08/17 00:26:15;;;;;;;;;;;;;;;;;;5157327;27;19915;-90
2022/08/17 00:28:41;;;;;;;;;;;;;;;;;;5158262;27;20321;-86
2022/08/17 00:31:06;;;;;;;;;;;;;;;;;;5158515;27;20276;-89
2022/08/17 00:33:32;;;;;;;;;;;;;;;;;;5157736;27;19918;-88
2022/08/17 00:35:57;;;;;;;;;;;;;;;;;;5143154;27;19925;-85
2022/08/17 00:38:23;;;;;;;;;;;;;;;;;;5165683;27;19923;-87
2022/08/17 00:40:49;;;;;;;;;;;;;;;;;;5156957;27;19911;-89
2022/08/17 00:43:25;;;;;;;;;;;;;;;;;;5140045;27;19919;-90
2022/08/17 00:45:50;;;;;;;;;;;;;;;;;;5156784;27;19918;-88
2022/08/17 00:48:15;;;;;;;;;;;;;;;;;;5139601;27;19915;-89
2022/08/17 00:50:42;;;;;;;;;;;;;;;;;;5139369;27;19915;-89
2022/08/17 00:53:07;;;;;;;;;;;;;;;;;;5139592;27;20081;-86
2022/08/17 00:55:33;;;;;;;;;;;;;;;;;;5156326;27;19958;-88
2022/08/17 00:58:01;;;;;;;;;;;;;;;;;;5149574;27;19918;-90
2022/08/17 01:00:28;;;;;;;;;;;;;;;;;;5156655;27;19914;-86
2022/08/17 01:02:59;;;;;;;;;;;;;;;;;;5156561;27;20309;-89
2022/08/17 01:05:26;;;;;;;;;;;;;;;;;;5139406;27;20285;-86
2022/08/17 01:07:51;;;;;;;;;;;;;;;;;;5156598;27;19915;-87
2022/08/17 01:10:17;;;;;;;;;;;;;;;;;;5156709;27;19928;-88
2022/08/17 01:12:42;;;;;;;;;;;;;;;;;;5156348;27;19922;-87
2022/08/17 01:15:10;;;;;;;;;;;;;;;;;;5156628;27;19967;-86
2022/08/17 01:17:35;;;;;;;;;;;;;;;;;;5164170;27;19915;-87
2022/08/17 01:20:01;;;;;;;;;;;;;;;;;;5159091;27;19922;-87
2022/08/17 01:22:26;;;;;;;;;;;;;;;;;;5139135;27;19998;-88
2022/08/17 01:24:56;;;;;;;;;;;;;;;;;;5156233;27;19915;-88
2022/08/17 01:27:21;;;;;;;;;;;;;;;;;;5156001;27;19945;-87
2022/08/17 01:29:49;;;;;;;;;;;;;;;;;;5138894;27;19915;-86
2022/08/17 01:32:15;;;;;;;;;;;;;;;;;;5156139;27;19915;-87
2022/08/17 01:34:40;;;;;;;;;;;;;;;;;;5155915;27;20359;-87
2022/08/17 01:37:06;;;;;;;;;;;;;;;;;;5158428;27;20307;-86
2022/08/17 01:39:35;;;;;;;;;;;;;;;;;;5166462;27;20240;-88
2022/08/17 01:42:05;;;;;;;;;;;;;;;;;;5138600;27;20305;-88
2022/08/17 01:44:30;;;;;;;;;;;;;;;;;;5138327;27;20226;-88
2022/08/17 01:46:56;;;;;;;;;;;;;;;;;;5138768;27;19922;-87
2022/08/17 01:49:21;;;;;;;;;;;;;;;;;;5138210;27;20309;-88
2022/08/17 01:51:46;;;;;;;;;;;;;;;;;;5155503;27;20260;-88
2022/08/17 01:54:12;;;;;;;;;;;;;;;;;;5138354;27;19911;-88
2022/08/17 01:56:39;;;;;;;;;;;;;;;;;;5155695;27;19915;-86
2022/08/17 01:59:05;;;;;;;;;;;;;;;;;;5145903;27;19915;-88
2022/08/17 02:01:31;;;;;;;;;;;;;;;;;;5156887;27;19967;-88
2022/08/17 02:03:59;;;;;;;;;;;;;;;;;;5138346;27;19915;-88
2022/08/17 02:06:25;;;;;;;;;;;;;;;;;;5156493;27;19933;-88
2022/08/17 02:08:50;;;;;;;;;;;;;;;;;;5156265;27;20256;-89
2022/08/17 02:11:16;;;;;;;;;;;;;;;;;;5138149;27;19919;-88
2022/08/17 02:13:45;;;;;;;;;;;;;;;;;;5155266;27;19915;-86
2022/08/17 02:16:11;;;;;;;;;;;;;;;;;;5155165;27;19922;-87
2022/08/17 02:18:37;;;;;;;;;;;;;;;;;;5157940;27;20317;-87
2022/08/17 02:21:02;;;;;;;;;;;;;;;;;;5158790;27;19968;-87
2022/08/17 02:23:28;;;;;;;;;;;;;;;;;;5155140;27;19919;-86
2022/08/17 02:25:53;;;;;;;;;;;;;;;;;;5156278;27;19971;-88
2022/08/17 02:28:19;;;;;;;;;;;;;;;;;;5154981;27;20002;-87
2022/08/17 02:30:44;;;;;;;;;;;;;;;;;;5155206;27;19915;-87
2022/08/17 02:33:10;;;;;;;;;;;;;;;;;;5137864;27;19916;-86
2022/08/17 02:35:36;;;;;;;;;;;;;;;;;;5156417;27;19915;-87
2022/08/17 02:38:03;;;;;;;;;;;;;;;;;;5156736;27;19998;-88
2022/08/17 02:40:28;;;;;;;;;;;;;;;;;;5165459;27;20053;-88
2022/08/17 02:42:54;;;;;;;;;;;;;;;;;;5155162;27;20363;-88
2022/08/17 02:45:21;;;;;;;;;;;;;;;;;;5156156;27;19934;-88
2022/08/17 02:47:47;;;;;;;;;;;;;;;;;;5155966;27;20009;-87
2022/08/17 02:50:12;;;;;;;;;;;;;;;;;;5155049;27;20007;-88
2022/08/17 02:52:39;;;;;;;;;;;;;;;;;;5155059;27;19915;-86
2022/08/17 02:55:05;;;;;;;;;;;;;;;;;;5138097;27;20330;-85
2022/08/17 02:57:30;;;;;;;;;;;;;;;;;;5155576;27;20329;-87
2022/08/17 02:59:56;;;;;;;;;;;;;;;;;;5163171;27;19986;-86
2022/08/17 03:02:21;;;;;;;;;;;;;;;;;;5160559;27;19915;-86
2022/08/17 03:04:46;;;;;;;;;;;;;;;;;;5138042;27;19915;-87
2022/08/17 03:07:12;;;;;;;;;;;;;;;;;;5154745;27;19915;-87
2022/08/17 03:09:37;;;;;;;;;;;;;;;;;;5155256;27;19915;-85
2022/08/17 03:12:04;;;;;;;;;;;;;;;;;;5154919;27;20044;-89
2022/08/17 03:14:31;;;;;;;;;;;;;;;;;;5154561;27;20324;-89
2022/08/17 03:16:56;;;;;;;;;;;;;;;;;;5154763;27;19915;-88
2022/08/17 03:19:21;;;;;;;;;;;;;;;;;;5158492;27;19926;-88
2022/08/17 03:21:47;;;;;;;;;;;;;;;;;;5166177;27;19915;-88
2022/08/17 03:24:13;;;;;;;;;;;;;;;;;;5159870;27;20252;-88
2022/08/17 03:26:39;;;;;;;;;;;;;;;;;;5158948;27;19972;-89
2022/08/17 03:29:04;;;;;;;;;;;;;;;;;;5141240;27;19923;-87
2022/08/17 03:31:30;;;;;;;;;;;;;;;;;;5158466;27;19946;-90
2022/08/17 03:33:56;;;;;;;;;;;;;;;;;;5158615;27;20256;-87
2022/08/17 03:36:21;;;;;;;;;;;;;;;;;;5159647;27;20308;-88
2022/08/17 03:38:47;;;;;;;;;;;;;;;;;;5159453;27;19915;-87
2022/08/17 03:41:12;;;;;;;;;;;;;;;;;;5167207;27;20361;-87
2022/08/17 03:43:38;;;;;;;;;;;;;;;;;;5159340;27;19915;-87
2022/08/17 03:57:04;;;;;;;;;;;;;;;;;;5158307;27;19923;-88
2022/08/17 03:59:29;;;;;;;;;;;;;;;;;;5158102;27;19915;-87
2022/08/17 04:01:56;;;;;;;;;;;;;;;;;;5168393;27;19959;-88
2022/08/17 04:04:22;;;;;;;;;;;;;;;;;;5159554;27;19947;-87
2022/08/17 04:06:47;;;;;;;;;;;;;;;;;;5158285;27;19916;-87
2022/08/17 04:09:12;;;;;;;;;;;;;;;;;;5158727;27;19919;-88
2022/08/17 04:11:38;;;;;;;;;;;;;;;;;;5159086;27;19954;-87
2022/08/17 04:14:03;;;;;;;;;;;;;;;;;;5157345;27;20279;-89
2022/08/17 04:16:29;;;;;;;;;;;;;;;;;;5157459;27;19922;-88
2022/08/17 04:18:54;;;;;;;;;;;;;;;;;;5140444;27;19951;-86
2022/08/17 04:21:20;;;;;;;;;;;;;;;;;;5167902;27;19915;-87
2022/08/17 04:23:45;;;;;;;;;;;;;;;;;;5158034;27;19926;-87
2022/08/17 04:26:11;;;;;;;;;;;;;;;;;;5157616;27;20011;-87
2022/08/17 04:28:36;;;;;;;;;;;;;;;;;;5159215;27;19922;-88
2022/08/17 04:31:01;;;;;;;;;;;;;;;;;;5173611;27;19942;-88
2022/08/17 04:33:27;;;;;;;;;;;;;;;;;;5175831;27;19911;-87
2022/08/17 04:35:53;;;;;;;;;;;;;;;;;;5151747;27;19922;-87
2022/08/17 04:38:20;;;;;;;;;;;;;;;;;;5158651;27;19915;-89
2022/08/17 04:43:36;;;;;;;;;;;;;;;;;;5157144;27;19922;-87
2022/08/17 04:46:03;;;;;;;;;;;;;;;;;;5157165;27;19958;-89
2022/08/17 04:48:33;;;;;;;;;;;;;;;;;;5140070;27;19915;-89
2022/08/17 04:50:59;;;;;;;;;;;;;;;;;;5158192;27;19922;-87
2022/08/17 04:53:24;;;;;;;;;;;;;;;;;;5156733;27;19993;-88
2022/08/17 04:55:53;;;;;;;;;;;;;;;;;;5156764;27;19915;-88
2022/08/17 04:58:18;;;;;;;;;;;;;;;;;;5157581;27;19958;-89
2022/08/17 05:00:44;;;;;;;;;;;;;;;;;;5159992;27;19915;-88
2022/08/17 05:03:09;;;;;;;;;;;;;;;;;;5146053;27;19915;-87
2022/08/17 05:05:35;;;;;;;;;;;;;;;;;;5156737;27;19919;-86
2022/08/17 05:08:01;;;;;;;;;;;;;;;;;;5139290;27;20341;-88
2022/08/17 05:10:29;;;;;;;;;;;;;;;;;;5157570;27;20255;-87
2022/08/17 05:12:58;;;;;;;;;;;;;;;;;;5157453;27;19922;-88
2022/08/17 05:15:23;;;;;;;;;;;;;;;;;;5156346;27;20320;-87
2022/08/17 05:17:48;;;;;;;;;;;;;;;;;;5157601;27;19956;-91
2022/08/17 05:20:14;;;;;;;;;;;;;;;;;;5156314;27;19915;-88
2022/08/17 05:23:06;;;;;;;;;;;;;;;;;;5164486;27;19915;-88
2022/08/17 05:25:34;;;;;;;;;;;;;;;;;;5151573;27;20264;-87
2022/08/17 05:28:02;;;;;;;;;;;;;;;;;;5155855;27;19915;-88
2022/08/17 05:30:27;;;;;;;;;;;;;;;;;;5157217;27;19915;-87
2022/08/17 05:32:53;;;;;;;;;;;;;;;;;;5156388;27;19937;-90
2022/08/17 05:35:19;;;;;;;;;;;;;;;;;;5157539;27;19947;-88
2022/08/17 05:37:44;;;;;;;;;;;;;;;;;;5158292;27;19918;-88
2022/08/17 05:40:13;;;;;;;;;;;;;;;;;;5157416;27;20017;-90
2022/08/17 05:42:38;;;;;;;;;;;;;;;;;;5167404;27;19915;-91
2022/08/17 05:45:04;;;;;;;;;;;;;;;;;;5158765;27;19938;-90
2022/08/17 05:47:29;;;;;;;;;;;;;;;;;;5157795;27;19915;-93
2022/08/17 05:49:55;;;;;;;;;;;;;;;;;;5146891;27;19922;-89
2022/08/17 05:52:36;;;;;;;;;;;;;;;;;;5143085;27;19915;-88
2022/08/17 05:55:01;;;;;;;;;;;;;;;;;;5167163;27;19971;-88
2022/08/17 05:57:39;;;;;;;;;;;;;;;;;;5163015;27;20312;-88
2022/08/17 06:00:23;;;;;;;;;;;;;;;;;;5162320;22;19927;-85
2022/08/17 06:02:59;;;;;;;;;;;;;;;;;;5117520;27;20405;-86
2022/08/17 06:05:28;;;;;;;;;;;;;;;;;;5100560;27;19954;-85
2022/08/17 06:08:12;;;;;;;;;;;;;;;;;;5118078;27;19972;-79
2022/08/17 06:10:46;;;;;;;;;;;;;;;;;;5135069;27;19916;-78
2022/08/17 06:13:18;;;;;;;;;;;;;;;;;;5117260;27;19915;-80
2022/08/17 06:16:03;;;;;;;;;;;;;;;;;;5135498;27;19977;-79
2022/08/17 06:18:30;;;;;;;;;;;;;;;;;;5135366;27;20002;-80
2022/08/17 06:20:57;;;;;;;;;;;;;;;;;;5099985;27;19916;-79
2022/08/17 06:23:28;;;;;;;;;;;;;;;;;;5117320;27;19916;-80
2022/08/17 06:25:54;;;;;;;;;;;;;;;;;;5117178;27;19916;-77
2022/08/17 06:28:26;;;;;;;;;;;;;;;;;;5099772;27;19915;-78
2022/08/17 06:30:56;;;;;;;;;;;;;;;;;;5116883;27;19916;-78
2022/08/17 06:33:23;;;;;;;;;;;;;;;;;;5100523;27;19943;-79
2022/08/17 06:36:01;;;;;;;;;;;;;;;;;;5100288;27;19916;-78
2022/08/17 06:38:31;;;;;;;;;;;;;;;;;;5099952;28;19915;-79
2022/08/17 06:40:56;;;;;;;;;;;;;;;;;;5100038;28;19972;-80
2022/08/17 06:43:40;;;;;;;;;;;;;;;;;;5135254;28;19915;-79
2022/08/17 06:46:18;;;;;;;;;;;;;;;;;;5118511;28;19922;-80
2022/08/17 06:48:43;;;;;;;;;;;;;;;;;;5116849;28;19915;-79
2022/08/17 06:51:17;;;;;;;;;;;;;;;;;;5135080;28;19922;-80
2022/08/17 06:54:09;;;;;;;;;;;;;;;;;;5116493;28;19922;-79
2022/08/17 06:56:40;;;;;;;;;;;;;;;;;;5134180;27;19964;-80
2022/08/17 06:59:06;;;;;;;;;;;;;;;;;;5121037;27;19915;-79
2022/08/17 07:01:33;;;;;;;;;;;;;;;;;;5120870;27;19926;-79
2022/08/17 07:04:04;;;;;;;;;;;;;;;;;;5121057;27;19915;-79
2022/08/17 07:06:32;;;;;;;;;;;;;;;;;;5122117;27;19938;-79
2022/08/17 07:09:23;;;;;;;;;;;;;;;;;;5139369;27;19919;-79
2022/08/17 07:12:18;;;;;;;;;;;;;;;;;;5082198;27;19923;-80
2022/08/17 07:14:50;;;;;;;;;;;;;;;;;;5099051;27;19916;-80
2022/08/17 07:17:17;;;;;;;;;;;;;;;;;;5138846;27;19915;-79
2022/08/17 07:19:44;;;;;;;;;;;;;;;;;;5103629;27;19917;-80
2022/08/17 07:22:29;;;;;;;;;;;;;;;;;;5103478;27;20297;-79
2022/08/17 07:24:58;;;;;;;;;;;;;;;;;;5138766;27;19916;-80
2022/08/17 07:27:44;;;;;;;;;;;;;;;;;;5104419;27;19991;-79
2022/08/17 07:30:20;;;;;;;;;;;;;;;;;;5104448;27;19915;-80
2022/08/17 07:32:58;;;;;;;;;;;;;;;;;;5108033;28;19977;-80
2022/08/17 07:35:38;;;;;;;;;;;;;;;;;;5083018;28;19915;-80
2022/08/17 07:38:07;;;;;;;;;;;;;;;;;;5082942;28;19916;-81
2022/08/17 07:40:39;;;;;;;;;;;;;;;;;;5099821;28;19919;-80
2022/08/17 07:43:12;;;;;;;;;;;;;;;;;;5099852;28;19947;-78
2022/08/17 07:48:30;;;;;;;;;;;;;;;;;;5118279;28;19923;-80
2022/08/17 07:50:56;;;;;;;;;;;;;;;;;;5083933;28;20326;-79
2022/08/17 07:53:22;;;;;;;;;;;;;;;;;;5099486;28;20344;-79
2022/08/17 07:55:47;;;;;;;;;;;;;;;;;;5099450;28;19920;-79
2022/08/17 07:58:16;;;;;;;;;;;;;;;;;;5099680;28;19916;-79
2022/08/17 08:00:42;;;;;;;;;;;;;;;;;;5099167;28;19920;-78
2022/08/17 08:03:21;;;;;;;;;;;;;;;;;;5099150;28;20014;-79
2022/08/17 08:05:48;;;;;;;;;;;;;;;;;;5099039;28;19919;-79
2022/08/17 08:08:27;;;;;;;;;;;;;;;;;;5098914;28;19973;-79
2022/08/17 08:10:57;;;;;;;;;;;;;;;;;;5100785;28;19923;-79
2022/08/17 08:13:23;;;;;;;;;;;;;;;;;;5100236;28;19916;-78
2022/08/17 08:15:49;;;;;;;;;;;;;;;;;;5082399;28;19916;-80
2022/08/17 08:18:19;;;;;;;;;;;;;;;;;;5081930;28;20363;-79
2022/08/17 08:20:52;;;;;;;;;;;;;;;;;;5098857;28;19962;-79
2022/08/17 08:23:24;;;;;;;;;;;;;;;;;;5098828;28;19960;-79
2022/08/17 08:26:08;;;;;;;;;;;;;;;;;;5117042;28;20478;-79
2022/08/17 08:28:36;;;;;;;;;;;;;;;;;;5116896;28;19916;-78
2022/08/17 08:31:23;;;;;;;;;;;;;;;;;;5117193;28;19922;-78
2022/08/17 08:33:55;;;;;;;;;;;;;;;;;;5101043;28;19939;-78
2022/08/17 08:36:54;;;;;;;;;;;;;;;;;;5116872;28;20023;-77
2022/08/17 08:39:23;;;;;;;;;;;;;;;;;;5098912;28;19915;-77
2022/08/17 08:41:58;;;;;;;;;;;;;;;;;;5099059;28;19922;-77
2022/08/17 08:44:34;;;;;;;;;;;;;;;;;;5082091;28;20412;-78
2022/08/17 08:47:19;;;;;;;;;;;;;;;;;;5098475;28;19916;-79
2022/08/17 08:49:44;;;;;;;;;;;;;;;;;;5116250;28;19923;-77
2022/08/17 08:52:13;;;;;;;;;;;;;;;;;;5098478;28;19920;-77
2022/08/17 08:55:17;;;;;;;;;;;;;;;;;;5100578;28;19912;-77
2022/08/17 08:57:44;;;;;;;;;;;;;;;;;;5014164;28;19918;-79
2022/08/17 09:00:13;;;;;;;;;;;;;;;;;;4997578;28;19957;-78
2022/08/17 09:02:57;;;;;;;;;;;;;;;;;;5064928;28;20252;-78
2022/08/17 09:05:41;;;;;;;;;;;;;;;;;;5116035;28;19916;-79
2022/08/17 09:08:18;;;;;;;;;;;;;;;;;;5116203;28;19916;-79
2022/08/17 09:10:44;;;;;;;;;;;;;;;;;;5081251;28;19922;-78
2022/08/17 09:13:21;;;;;;;;;;;;;;;;;;5116157;28;19916;-77
2022/08/17 09:15:49;;;;;;;;;;;;;;;;;;5116607;28;19931;-78
2022/08/17 09:18:38;;;;;;;;;;;;;;;;;;5097726;28;19969;-77
2022/08/17 09:21:13;;;;;;;;;;;;;;;;;;5081209;28;19973;-82
2022/08/17 09:23:39;;;;;;;;;;;;;;;;;;5097654;28;19916;-80
2022/08/17 09:26:08;;;;;;;;;;;;;;;;;;5115819;28;19922;-80
2022/08/17 09:28:35;;;;;;;;;;;;;;;;;;5080381;28;20321;-77
2022/08/17 09:31:06;;;;;;;;;;;;;;;;;;5097577;28;19915;-80
2022/08/17 09:33:32;;;;;;;;;;;;;;;;;;5115442;28;19919;-77
2022/08/17 09:36:02;;;;;;;;;;;;;;;;;;5097310;28;20002;-77
2022/08/17 09:38:31;;;;;;;;;;;;;;;;;;5116209;28;19912;-76
2022/08/17 09:40:58;;;;;;;;;;;;;;;;;;5097146;28;19996;-77
2022/08/17 09:43:37;;;;;;;;;;;;;;;;;;5097151;28;19915;-77
2022/08/17 09:46:17;;;;;;;;;;;;;;;;;;5097183;28;19957;-75
2022/08/17 09:48:44;;;;;;;;;;;;;;;;;;5096931;28;19951;-74
2022/08/17 09:51:20;;;;;;;;;;;;;;;;;;5115109;28;20348;-76
2022/08/17 09:53:46;;;;;;;;;;;;;;;;;;5115157;28;19946;-76
2022/08/17 09:56:30;;;;;;;;;;;;;;;;;;5097062;28;19916;-78
2022/08/17 09:59:02;;;;;;;;;;;;;;;;;;5115376;28;19916;-77
2022/08/17 10:01:30;;;;;;;;;;;;;;;;;;5114813;28;19927;-76
2022/08/17 10:03:58;;;;;;;;;;;;;;;;;;5115041;28;19915;-76
2022/08/17 10:06:26;;;;;;;;;;;;;;;;;;5114988;28;20366;-77
2022/08/17 10:09:01;;;;;;;;;;;;;;;;;;5097181;28;19979;-76
2022/08/17 10:14:19;;;;;;;;;;;;;;;;;;5099328;28;20326;-77
2022/08/17 10:16:48;;;;;;;;;;;;;;;;;;5079728;28;19915;-78
2022/08/17 10:19:18;;;;;;;;;;;;;;;;;;5096925;28;20230;-76
2022/08/17 10:27:38;;;;;;;;;;;;;;;;;;5099373;28;19950;-75
2022/08/17 10:30:04;;;;;;;;;;;;;;;;;;5078650;28;19915;-75
2022/08/17 10:32:48;;;;;;;;;;;;;;;;;;5114758;28;20226;-74
2022/08/17 10:35:17;;;;;;;;;;;;;;;;;;5096783;28;19943;-75
2022/08/17 10:37:52;;;;;;;;;;;;;;;;;;5096748;28;19947;-75
2022/08/17 10:40:22;;;;;;;;;;;;;;;;;;5114982;28;19975;-75
2022/08/17 10:42:51;;;;;;;;;;;;;;;;;;5115117;28;20230;-75
2022/08/17 10:45:36;;;;;;;;;;;;;;;;;;5114392;28;19923;-75
2022/08/17 10:48:05;;;;;;;;;;;;;;;;;;5113787;28;19934;-75
2022/08/17 10:50:50;;;;;;;;;;;;;;;;;;5114691;28;20336;-75
2022/08/17 10:53:39;;;;;;;;;;;;;;;;;;5114190;28;19919;-76
2022/08/17 10:56:10;;;;;;;;;;;;;;;;;;5096390;28;19962;-76
2022/08/17 10:58:52;;;;;;;;;;;;;;;;;;5114779;28;20038;-76
2022/08/17 11:01:19;;;;;;;;;;;;;;;;;;5096043;28;19982;-77
2022/08/17 11:03:58;;;;;;;;;;;;;;;;;;5096448;28;19916;-75
2022/08/17 11:06:23;;;;;;;;;;;;;;;;;;5096185;28;19916;-74
2022/08/17 11:09:04;;;;;;;;;;;;;;;;;;5096120;28;20382;-75
2022/08/17 11:11:44;;;;;;;;;;;;;;;;;;5096518;28;19916;-75
2022/08/17 11:14:10;;;;;;;;;;;;;;;;;;5079415;28;19990;-76
2022/08/17 11:16:38;;;;;;;;;;;;;;;;;;5114377;28;20332;-75
2022/08/17 11:19:09;;;;;;;;;;;;;;;;;;5114243;28;19962;-75
2022/08/17 11:21:39;;;;;;;;;;;;;;;;;;5114277;28;19973;-75
2022/08/17 11:24:11;;;;;;;;;;;;;;;;;;5096224;28;20325;-76
2022/08/17 11:26:37;;;;;;;;;;;;;;;;;;5096076;28;19923;-76
2022/08/17 11:29:05;;;;;;;;;;;;;;;;;;5079082;28;20238;-75
2022/08/17 11:31:41;;;;;;;;;;;;;;;;;;5096181;28;19916;-76
2022/08/17 11:34:12;;;;;;;;;;;;;;;;;;5079730;28;19912;-75
2022/08/17 11:36:46;;;;;;;;;;;;;;;;;;5096405;28;19999;-76
2022/08/17 11:39:11;;;;;;;;;;;;;;;;;;5114367;28;19919;-75
2022/08/17 11:41:49;;;;;;;;;;;;;;;;;;5117144;28;20345;-76
2022/08/17 11:44:21;;;;;;;;;;;;;;;;;;5118006;28;19918;-76
2022/08/17 11:52:34;;;;;;;;;;;;;;;;;;5117772;28;19923;-76
2022/08/17 11:55:00;;;;;;;;;;;;;;;;;;5099439;28;19961;-75
2022/08/17 11:57:25;;;;;;;;;;;;;;;;;;5117373;28;20323;-75
2022/08/17 11:59:50;;;;;;;;;;;;;;;;;;5117569;28;19928;-76
2022/08/17 12:02:18;;;;;;;;;;;;;;;;;;5117532;28;20219;-75
2022/08/17 12:05:00;;;;;;;;;;;;;;;;;;5117744;28;20012;-75
2022/08/17 12:07:26;;;;;;;;;;;;;;;;;;5117506;28;19989;-76
2022/08/17 12:09:52;;;;;;;;;;;;;;;;;;5099451;28;20322;-75
2022/08/17 12:12:28;;;;;;;;;;;;;;;;;;5117082;28;19961;-76
2022/08/17 12:14:56;;;;;;;;;;;;;;;;;;5099808;28;19968;-75
2022/08/17 12:17:22;;;;;;;;;;;;;;;;;;5082552;28;19915;-75
2022/08/17 12:19:47;;;;;;;;;;;;;;;;;;5099582;28;19912;-76
2022/08/17 12:22:27;;;;;;;;;;;;;;;;;;5117130;28;20253;-76
2022/08/17 12:24:54;;;;;;;;;;;;;;;;;;5082487;28;19916;-75
2022/08/17 12:27:25;;;;;;;;;;;;;;;;;;5082152;28;19947;-75
2022/08/17 12:29:51;;;;;;;;;;;;;;;;;;5098769;28;19915;-76
2022/08/17 12:32:17;;;;;;;;;;;;;;;;;;5098861;28;19916;-76
2022/08/17 12:34:43;;;;;;;;;;;;;;;;;;5098994;28;19923;-76
2022/08/17 12:37:20;;;;;;;;;;;;;;;;;;5082058;28;19916;-75
2022/08/17 12:39:52;;;;;;;;;;;;;;;;;;5116804;28;20004;-75
2022/08/17 12:42:21;;;;;;;;;;;;;;;;;;5116540;28;19923;-76
2022/08/17 12:44:46;;;;;;;;;;;;;;;;;;5116757;28;19916;-75
2022/08/17 12:47:17;;;;;;;;;;;;;;;;;;5116586;28;20344;-75
2022/08/17 12:49:44;;;;;;;;;;;;;;;;;;5098758;28;20088;-76
2022/08/17 12:52:09;;;;;;;;;;;;;;;;;;5097354;28;19916;-76
2022/08/17 12:54:34;;;;;;;;;;;;;;;;;;5116807;28;19919;-76
2022/08/17 12:57:02;;;;;;;;;;;;;;;;;;5116233;28;19916;-75
2022/08/17 12:59:31;;;;;;;;;;;;;;;;;;5098222;28;19918;-76
2022/08/17 13:01:57;;;;;;;;;;;;;;;;;;5098724;28;19916;-75
2022/08/17 13:04:22;;;;;;;;;;;;;;;;;;5098182;28;20263;-75
2022/08/17 13:06:50;;;;;;;;;;;;;;;;;;5098189;28;19916;-76
2022/08/17 13:09:20;;;;;;;;;;;;;;;;;;5097974;28;20384;-76
2022/08/17 13:11:47;;;;;;;;;;;;;;;;;;5097804;28;19962;-75
2022/08/17 13:14:13;;;;;;;;;;;;;;;;;;5098021;28;19916;-75
2022/08/17 13:16:38;;;;;;;;;;;;;;;;;;5098566;28;20265;-75
2022/08/17 13:19:14;;;;;;;;;;;;;;;;;;5097893;28;19916;-75
2022/08/17 13:21:43;;;;;;;;;;;;;;;;;;5116241;28;19923;-76
2022/08/17 13:24:13;;;;;;;;;;;;;;;;;;5097820;28;19920;-76
2022/08/17 13:26:41;;;;;;;;;;;;;;;;;;5115654;28;19922;-79
2022/08/17 13:29:07;;;;;;;;;;;;;;;;;;5097773;28;19963;-80
2022/08/17 13:31:37;;;;;;;;;;;;;;;;;;5097844;28;19922;-81
2022/08/17 13:34:11;;;;;;;;;;;;;;;;;;5115876;28;19916;-81
2022/08/17 13:36:37;;;;;;;;;;;;;;;;;;5097701;28;19915;-80
2022/08/17 13:39:07;;;;;;;;;;;;;;;;;;5097196;28;20287;-82
2022/08/17 13:41:33;;;;;;;;;;;;;;;;;;5097661;28;19935;-82
2022/08/17 13:43:58;;;;;;;;;;;;;;;;;;5080706;28;19920;-81
2022/08/17 13:46:26;;;;;;;;;;;;;;;;;;5097481;28;19937;-81
2022/08/17 13:48:55;;;;;;;;;;;;;;;;;;5099886;28;19973;-81
2022/08/17 13:51:23;;;;;;;;;;;;;;;;;;5080709;28;19988;-80
2022/08/17 13:53:50;;;;;;;;;;;;;;;;;;5102292;28;19988;-79
2022/08/17 13:56:27;;;;;;;;;;;;;;;;;;5080775;28;19973;-80
2022/08/17 13:58:53;;;;;;;;;;;;;;;;;;5101117;28;19942;-81
2022/08/17 14:01:28;;;;;;;;;;;;;;;;;;5094927;28;19931;-80
2022/08/17 14:03:54;;;;;;;;;;;;;;;;;;5109785;28;19972;-81
2022/08/17 14:06:20;;;;;;;;;;;;;;;;;;5105131;28;19926;-82
2022/08/17 14:08:46;;;;;;;;;;;;;;;;;;5121464;28;19917;-81
2022/08/17 14:11:11;;;;;;;;;;;;;;;;;;5080796;28;19916;-81
2022/08/17 14:13:36;;;;;;;;;;;;;;;;;;5097180;28;19916;-80
2022/08/17 14:16:02;;;;;;;;;;;;;;;;;;5097232;28;19915;-81
2022/08/17 14:18:27;;;;;;;;;;;;;;;;;;5115011;28;19951;-82
2022/08/17 14:20:55;;;;;;;;;;;;;;;;;;5097139;28;19916;-82
2022/08/17 14:23:20;;;;;;;;;;;;;;;;;;5096999;28;19915;-81
2022/08/17 14:25:46;;;;;;;;;;;;;;;;;;5096946;28;20010;-80
2022/08/17 14:28:12;;;;;;;;;;;;;;;;;;5114860;28;19962;-81
2022/08/17 14:30:37;;;;;;;;;;;;;;;;;;5114804;28;19915;-82
2022/08/17 14:33:04;;;;;;;;;;;;;;;;;;5096882;28;19915;-81
2022/08/17 14:35:30;;;;;;;;;;;;;;;;;;5114917;28;19923;-80
2022/08/17 14:37:55;;;;;;;;;;;;;;;;;;5114544;28;19915;-80
2022/08/17 14:40:23;;;;;;;;;;;;;;;;;;5096646;28;19916;-82
2022/08/17 14:42:48;;;;;;;;;;;;;;;;;;5097111;28;20336;-81
2022/08/17 14:45:14;;;;;;;;;;;;;;;;;;5115023;28;19916;-80
2022/08/17 14:47:40;;;;;;;;;;;;;;;;;;5096725;28;20381;-80
2022/08/17 14:50:08;;;;;;;;;;;;;;;;;;5096463;28;20019;-79
2022/08/17 14:52:33;;;;;;;;;;;;;;;;;;5096408;28;19922;-81
2022/08/17 14:54:58;;;;;;;;;;;;;;;;;;5096575;28;19912;-79
2022/08/17 14:57:24;;;;;;;;;;;;;;;;;;5079792;28;20323;-81
2022/08/17 14:59:50;;;;;;;;;;;;;;;;;;5096427;28;20322;-81
2022/08/17 15:02:15;;;;;;;;;;;;;;;;;;5113787;28;19955;-82
2022/08/17 15:04:41;;;;;;;;;;;;;;;;;;5114598;28;20364;-81
2022/08/17 15:07:06;;;;;;;;;;;;;;;;;;5114355;28;20363;-82
2022/08/17 15:09:32;;;;;;;;;;;;;;;;;;5096341;28;19916;-82
2022/08/17 15:11:59;;;;;;;;;;;;;;;;;;5114462;28;19972;-81
2022/08/17 15:14:24;;;;;;;;;;;;;;;;;;5096506;28;19919;-81
2022/08/17 15:16:50;;;;;;;;;;;;;;;;;;5118572;28;19916;-82
2022/08/17 15:19:16;;;;;;;;;;;;;;;;;;5083939;28;19915;-81
2022/08/17 15:21:41;;;;;;;;;;;;;;;;;;5118783;28;19923;-83
2022/08/17 15:24:07;;;;;;;;;;;;;;;;;;5118421;28;19938;-80
2022/08/17 15:26:33;;;;;;;;;;;;;;;;;;5083266;28;19911;-81
2022/08/17 15:28:58;;;;;;;;;;;;;;;;;;5100012;28;19916;-81
2022/08/17 15:31:23;;;;;;;;;;;;;;;;;;5099994;28;20014;-81
2022/08/17 15:33:49;;;;;;;;;;;;;;;;;;5083195;28;19918;-81
2022/08/17 15:36:15;;;;;;;;;;;;;;;;;;5083260;28;19998;-81
2022/08/17 15:38:40;;;;;;;;;;;;;;;;;;5118225;28;20365;-82
2022/08/17 15:41:06;;;;;;;;;;;;;;;;;;5119379;28;19974;-81
2022/08/17 15:43:31;;;;;;;;;;;;;;;;;;5099979;28;19938;-82
2022/08/17 15:46:01;;;;;;;;;;;;;;;;;;5099705;28;19911;-82
2022/08/17 15:48:39;;;;;;;;;;;;;;;;;;5099798;28;19916;-82
2022/08/17 15:51:25;;;;;;;;;;;;;;;;;;5117680;28;19923;-82
2022/08/17 15:53:52;;;;;;;;;;;;;;;;;;5099262;28;19923;-83
2022/08/17 15:56:18;;;;;;;;;;;;;;;;;;5082919;28;19952;-80
2022/08/17 15:58:43;;;;;;;;;;;;;;;;;;5099562;28;20357;-81
2022/08/17 16:01:09;;;;;;;;;;;;;;;;;;5082876;28;20017;-82
2022/08/17 16:03:34;;;;;;;;;;;;;;;;;;5082385;28;20010;-82
2022/08/17 16:06:00;;;;;;;;;;;;;;;;;;5099093;28;20140;-83
2022/08/17 16:08:27;;;;;;;;;;;;;;;;;;5082410;28;20393;-82
2022/08/17 16:10:52;;;;;;;;;;;;;;;;;;5099754;28;20060;-82
2022/08/17 16:13:18;;;;;;;;;;;;;;;;;;5082420;28;19969;-83
2022/08/17 16:15:44;;;;;;;;;;;;;;;;;;5082524;28;19915;-81
2022/08/17 16:18:10;;;;;;;;;;;;;;;;;;5099445;28;20362;-82
2022/08/17 16:20:35;;;;;;;;;;;;;;;;;;5117290;28;19922;-81
2022/08/17 16:23:02;;;;;;;;;;;;;;;;;;5117622;28;19919;-83
2022/08/17 16:25:29;;;;;;;;;;;;;;;;;;5117377;28;19919;-82
2022/08/17 16:27:54;;;;;;;;;;;;;;;;;;5102335;28;19937;-81
2022/08/17 16:30:20;;;;;;;;;;;;;;;;;;5119635;28;19916;-82
2022/08/17 16:32:46;;;;;;;;;;;;;;;;;;5099706;28;20349;-82
2022/08/17 16:35:15;;;;;;;;;;;;;;;;;;5098898;28;19916;-82
2022/08/17 16:37:41;;;;;;;;;;;;;;;;;;5099727;28;19916;-82
2022/08/17 16:40:06;;;;;;;;;;;;;;;;;;5082009;28;20525;-82
2022/08/17 16:42:32;;;;;;;;;;;;;;;;;;5098695;28;19916;-82
2022/08/17 16:45:01;;;;;;;;;;;;;;;;;;5116985;28;19934;-81
2022/08/17 16:47:26;;;;;;;;;;;;;;;;;;5116484;28;19916;-82
2022/08/17 16:49:52;;;;;;;;;;;;;;;;;;5117000;28;19923;-82
2022/08/17 16:52:24;;;;;;;;;;;;;;;;;;5098670;28;20326;-81
2022/08/17 16:54:50;;;;;;;;;;;;;;;;;;5081893;28;20024;-82
2022/08/17 16:57:16;;;;;;;;;;;;;;;;;;5081438;28;20353;-82
2022/08/17 16:59:41;;;;;;;;;;;;;;;;;;5081639;28;20010;-82
2022/08/17 17:02:10;;;;;;;;;;;;;;;;;;5098147;28;19970;-81
2022/08/17 17:04:38;;;;;;;;;;;;;;;;;;5098733;28;20042;-82
2022/08/17 17:07:19;;;;;;;;;;;;;;;;;;5081837;28;19930;-82
2022/08/17 17:09:47;;;;;;;;;;;;;;;;;;5098224;28;19955;-82
2022/08/17 17:12:15;;;;;;;;;;;;;;;;;;5081513;28;19922;-82
2022/08/17 17:14:43;;;;;;;;;;;;;;;;;;5081431;28;19947;-82
2022/08/17 17:17:27;;;;;;;;;;;;;;;;;;5081093;28;19915;-82
2022/08/17 17:19:52;;;;;;;;;;;;;;;;;;5116205;28;19951;-82
2022/08/17 17:22:18;;;;;;;;;;;;;;;;;;5098066;28;19958;-81
2022/08/17 17:24:49;;;;;;;;;;;;;;;;;;5116125;28;20318;-80
2022/08/17 17:27:18;;;;;;;;;;;;;;;;;;5116078;28;19924;-82
2022/08/17 17:29:48;;;;;;;;;;;;;;;;;;5097748;28;19978;-82